Japan Airlines Virtual Airport Information Service

Kaohsiung International Airport

ICAO: RCKH Country: Taiwan
Latitude: 22.5771 Longitude: 120.35
Latest Arrival : SCC561 (RPLL-RCKH) Latest Departure : HDA433 (RCKH-VHHH)


WX CaptureLIVE
Data provided by noaa.gov | Fetched at 16:05:28

METAR : RCKH 041530Z 02005KT 9999 FEW016 18/12 Q1020 NOSIG RMK A3012

TAF : RCKH 041100Z 0412/0518 27005KT 9999 FEW015 BKN032 BECMG 0412/0414 02005KT TEMPO 0417/0423 06005KT 5000 HZ BECMG 0500/0502 27005KT TEMPO 0503/0509 27010KT BECMG 0510/0512 36005KT


Runway Data for RCKH
Data provided by openaviationdata.com

Runway ID Mag Var Hdg Length Elevation Surface ILS Freq ILS Id ILS Slope
9 -3 94° 10349 ft -38 ft Concrete 108.3 IKHG 3
27 -3 274° 10349 ft -38 ft Concrete 109.7 IKAS 0

Kaohsiung International Airport, Taiwan
Use only for reference purposes



Not for navigational purposes.